R/v John Dempsey — WAN9694 — position and weather

sailwx.info

Track history (hours):
 
Tides and Currents Weather Stations Pressure Air Temp Water Temp Dewpoint Dewpoint Depression Visibility Wind Speed Wind Dir Waves Ship Positions

R/v John Dempsey

Owner: CONNECTICUT, STATE OF, OLD LYME, CT. More information available from US FCC via Universal Licensing System and Coast Guard Vessel Documentation Center.

Last reported at 2017-Nov-09 13:57 UTC. Time now 2017-Dec-18 01:35 UTC.
Position N 41°10' W 072°33'.
Warning: this ship's position is 38 days out of date.

Type: Fishing. MMSI: 367058813.

Date/timePositionNaut miles runAvg speedWind from/ knotsBaromVisibWave heightAir tempDewpointWater temp
2017-Nov-09 13:57N 41°10' W 072°33'4 9.4
2017-Nov-09 13:29N 41°11' W 072°27'4 7.1
2017-Nov-09 12:59N 41°13' W 072°23'4 8.5
2017-Nov-09 12:30N 41°16' W 072°20'1 1.4
2017-Nov-09 12:00N 41°17' W 072°21'  
2017-Nov-03 16:44N 41°19' W 072°21'1 4.4
2017-Nov-03 16:24N 41°17' W 072°21'4 7.0
2017-Nov-03 15:50N 41°14' W 072°25'310.3
2017-Nov-03 15:30N 41°13' W 072°29'1 0.3
2017-Nov-03 13:10N 41°12' W 072°29'2 8.4
2017-Nov-03 12:57N 41°14' W 072°28'2 3.4
2017-Nov-03 12:30N 41°14' W 072°26'2 3.4
2017-Nov-03 11:59N 41°14' W 072°23'4 0.3
2017-Nov-02 22:42N 41°18' W 072°21'2 7.4
2017-Nov-02 22:23N 41°15' W 072°21'3 7.5
2017-Nov-02 21:58N 41°13' W 072°23'3 0.3
2017-Nov-02 11:28N 41°11' W 072°26'510.5
2017-Nov-02 10:58N 41°15' W 072°21'4 0.3
2017-Nov-01 23:09N 41°19' W 072°21'1 7.2
2017-Nov-01 22:58N 41°17' W 072°21'4 6.3
2017-Nov-01 22:17N 41°14' W 072°25'2 8.4
2017-Nov-01 22:00N 41°13' W 072°28'4 8.0
2017-Nov-01 21:30N 41°10' W 072°31'  
Track history (hours):
 
Tides and Currents Weather Stations Pressure Air Temp Water Temp Dewpoint Dewpoint Depression Visibility Wind Speed Wind Dir Waves Ship Positions

R/v John Dempsey

Owner: CONNECTICUT, STATE OF, OLD LYME, CT. More information available from US FCC via Universal Licensing System and Coast Guard Vessel Documentation Center.

Last reported at 2017-Nov-09 13:57 UTC. Time now 2017-Dec-18 01:35 UTC.
Position N 41°10' W 072°33'.
Warning: this ship's position is 38 days out of date.

Type: Fishing. MMSI: 367058813.

Date/timePositionNaut miles runAvg speedWind from/ knotsBaromVisibWave heightAir tempDewpointWater temp
2017-Nov-09 13:57N 41°10' W 072°33'4 9.4
2017-Nov-09 13:29N 41°11' W 072°27'4 7.1
2017-Nov-09 12:59N 41°13' W 072°23'4 8.5
2017-Nov-09 12:30N 41°16' W 072°20'1 1.4
2017-Nov-09 12:00N 41°17' W 072°21'  
2017-Nov-03 16:44N 41°19' W 072°21'1 4.4
2017-Nov-03 16:24N 41°17' W 072°21'4 7.0
2017-Nov-03 15:50N 41°14' W 072°25'310.3
2017-Nov-03 15:30N 41°13' W 072°29'1 0.3
2017-Nov-03 13:10N 41°12' W 072°29'2 8.4
2017-Nov-03 12:57N 41°14' W 072°28'2 3.4
2017-Nov-03 12:30N 41°14' W 072°26'2 3.4
2017-Nov-03 11:59N 41°14' W 072°23'4 0.3
2017-Nov-02 22:42N 41°18' W 072°21'2 7.4
2017-Nov-02 22:23N 41°15' W 072°21'3 7.5
2017-Nov-02 21:58N 41°13' W 072°23'3 0.3
2017-Nov-02 11:28N 41°11' W 072°26'510.5
2017-Nov-02 10:58N 41°15' W 072°21'4 0.3
2017-Nov-01 23:09N 41°19' W 072°21'1 7.2
2017-Nov-01 22:58N 41°17' W 072°21'4 6.3
2017-Nov-01 22:17N 41°14' W 072°25'2 8.4
2017-Nov-01 22:00N 41°13' W 072°28'4 8.0
2017-Nov-01 21:30N 41°10' W 072°31'  

Dump ship's entire track history